Time;durP1;ratioP1;P1;durP2;ratioP2;P2;SDS_P1;SDS_P2;PMS_P1;PMS_P2;Temp;Humidity;BMP_temperature;BMP_pressure;BME280_temperature;BME280_humidity;BME280_pressure;Samples;Min_cycle;Max_cycle;Signal;HPM_P1;HPM_P2
2021/10/21 00:00:47;;;;;;;7.03;3.75;;;;;;;;;;5053621;28;20063;-62
2021/10/21 00:03:15;;;;;;;6.78;3.78;;;;;;;;;;5053484;28;20049;-62
2021/10/21 00:05:42;;;;;;;6.47;3.70;;;;;;;;;;5053243;28;20052;-62
2021/10/21 00:08:09;;;;;;;6.50;3.40;;;;;;;;;;5053633;28;20049;-62
2021/10/21 00:10:36;;;;;;;8.85;3.88;;;;;;;;;;5053164;28;20095;-62
2021/10/21 00:13:03;;;;;;;6.72;3.85;;;;;;;;;;5053927;28;20075;-62
2021/10/21 00:15:31;;;;;;;7.28;3.97;;;;;;;;;;5053153;28;20049;-62
2021/10/21 00:17:59;;;;;;;7.53;4.03;;;;;;;;;;5053357;28;20517;-62
2021/10/21 00:20:26;;;;;;;5.82;3.67;;;;;;;;;;5053168;28;20049;-62
2021/10/21 00:22:53;;;;;;;7.60;3.95;;;;;;;;;;5053346;28;20044;-62
2021/10/21 00:25:20;;;;;;;6.80;3.60;;;;;;;;;;5053038;28;20052;-62
2021/10/21 00:27:47;;;;;;;8.48;3.92;;;;;;;;;;5053296;28;20067;-62
2021/10/21 00:30:14;;;;;;;8.65;3.97;;;;;;;;;;5052926;28;20049;-62
2021/10/21 00:32:42;;;;;;;6.95;3.70;;;;;;;;;;5053042;28;20092;-62
2021/10/21 00:35:11;;;;;;;6.57;3.80;;;;;;;;;;5052807;28;20088;-62
2021/10/21 00:37:38;;;;;;;7.63;3.85;;;;;;;;;;5052105;28;20157;-62
2021/10/21 00:40:07;;;;;;;7.43;4.07;;;;;;;;;;5052676;28;20045;-62
2021/10/21 00:42:34;;;;;;;8.13;5.13;;;;;;;;;;5053108;28;20051;-62
2021/10/21 00:45:01;;;;;;;8.57;4.25;;;;;;;;;;5052532;28;20056;-62
2021/10/21 00:47:28;;;;;;;10.45;4.65;;;;;;;;;;5052669;28;20061;-62
2021/10/21 00:49:55;;;;;;;6.60;3.72;;;;;;;;;;5052879;28;20139;-62
2021/10/21 00:52:24;;;;;;;6.55;4.05;;;;;;;;;;5052663;28;20045;-62
2021/10/21 00:54:53;;;;;;;8.35;4.43;;;;;;;;;;5052307;28;20056;-62
2021/10/21 00:57:20;;;;;;;7.65;4.32;;;;;;;;;;5052555;28;20045;-62
2021/10/21 00:59:48;;;;;;;8.15;4.95;;;;;;;;;;5052323;28;20439;-63
2021/10/21 01:02:16;;;;;;;9.32;4.80;;;;;;;;;;5052349;28;20052;-62
2021/10/21 01:04:43;;;;;;;8.45;4.70;;;;;;;;;;5052350;28;20504;-63
2021/10/21 01:07:10;;;;;;;7.55;4.50;;;;;;;;;;5052434;28;20075;-62
2021/10/21 01:09:40;;;;;;;7.50;4.65;;;;;;;;;;5052204;28;20403;-62
2021/10/21 01:12:07;;;;;;;9.20;4.90;;;;;;;;;;5073584;22;20041;-78
2021/10/21 01:14:34;;;;;;;8.70;4.88;;;;;;;;;;5061841;28;20041;-78
2021/10/21 01:17:00;;;;;;;7.47;4.72;;;;;;;;;;5061614;28;20076;-79
2021/10/21 01:19:31;;;;;;;8.52;4.78;;;;;;;;;;5061996;28;20048;-78
2021/10/21 01:22:01;;;;;;;7.40;4.65;;;;;;;;;;5061113;28;20080;-79
2021/10/21 01:24:27;;;;;;;11.27;5.90;;;;;;;;;;5059140;28;20045;-78
2021/10/21 01:26:57;;;;;;;8.68;5.05;;;;;;;;;;5056964;28;20083;-78
2021/10/21 01:29:25;;;;;;;7.13;4.32;;;;;;;;;;5060674;28;20102;-78
2021/10/21 01:31:53;;;;;;;8.32;4.60;;;;;;;;;;5058780;28;20056;-79
2021/10/21 01:34:20;;;;;;;6.72;4.47;;;;;;;;;;5059349;28;20044;-78
2021/10/21 01:36:51;;;;;;;7.57;4.45;;;;;;;;;;5060520;28;20045;-78
2021/10/21 01:39:20;;;;;;;10.00;5.18;;;;;;;;;;5062269;28;20086;-78
2021/10/21 01:41:47;;;;;;;9.13;4.65;;;;;;;;;;5060909;28;20115;-78
2021/10/21 01:44:17;;;;;;;7.95;4.80;;;;;;;;;;5057566;28;20062;-78
2021/10/21 01:46:44;;;;;;;8.90;4.75;;;;;;;;;;5057639;28;20491;-78
2021/10/21 01:49:11;;;;;;;8.57;4.68;;;;;;;;;;5057214;28;20049;-79
2021/10/21 01:51:38;;;;;;;8.50;4.60;;;;;;;;;;5057159;28;20049;-79
2021/10/21 01:54:05;;;;;;;9.10;5.18;;;;;;;;;;5057921;28;20072;-78
2021/10/21 01:56:33;;;;;;;7.32;4.28;;;;;;;;;;5057377;28;20053;-78
2021/10/21 01:59:00;;;;;;;8.32;5.10;;;;;;;;;;5057835;28;20045;-78
2021/10/21 02:01:26;;;;;;;9.43;5.00;;;;;;;;;;5059220;28;20079;-78
2021/10/21 02:03:53;;;;;;;7.68;5.03;;;;;;;;;;5058841;28;20041;-78
2021/10/21 02:06:20;;;;;;;9.70;5.05;;;;;;;;;;5057974;28;20045;-78
2021/10/21 02:08:47;;;;;;;8.48;4.82;;;;;;;;;;5058633;28;20048;-76
2021/10/21 02:11:13;;;;;;;9.18;4.75;;;;;;;;;;5056470;28;20049;-78
2021/10/21 02:13:42;;;;;;;8.10;5.28;;;;;;;;;;5060185;28;20049;-79
2021/10/21 02:16:09;;;;;;;9.18;5.60;;;;;;;;;;5058943;28;20504;-78
2021/10/21 02:18:35;;;;;;;9.50;4.70;;;;;;;;;;5058355;28;20049;-77
2021/10/21 02:21:03;;;;;;;9.20;5.40;;;;;;;;;;5058352;28;20045;-78
2021/10/21 02:23:30;;;;;;;11.40;7.85;;;;;;;;;;5057402;28;20079;-77
2021/10/21 02:25:56;;;;;;;8.35;5.57;;;;;;;;;;5056891;28;20053;-77
2021/10/21 02:28:25;;;;;;;9.13;5.40;;;;;;;;;;5057681;28;20111;-77
2021/10/21 02:30:55;;;;;;;10.20;5.63;;;;;;;;;;5057811;28;20492;-77
2021/10/21 02:33:21;;;;;;;9.30;5.88;;;;;;;;;;5058203;28;20123;-76
2021/10/21 02:35:48;;;;;;;9.75;4.70;;;;;;;;;;5056967;28;20053;-77
2021/10/21 02:38:15;;;;;;;10.35;5.85;;;;;;;;;;5059078;28;20053;-78
2021/10/21 02:40:45;;;;;;;9.00;5.40;;;;;;;;;;5058848;28;20052;-76
2021/10/21 02:43:13;;;;;;;9.63;5.50;;;;;;;;;;5056266;28;20057;-77
2021/10/21 02:45:40;;;;;;;11.02;5.57;;;;;;;;;;5055851;28;20316;-77
2021/10/21 02:48:10;;;;;;;13.30;7.95;;;;;;;;;;5058083;28;20061;-78
2021/10/21 02:50:37;;;;;;;9.85;5.88;;;;;;;;;;5058457;28;20049;-78
2021/10/21 02:53:03;;;;;;;9.68;6.20;;;;;;;;;;5058486;28;20068;-77
2021/10/21 02:55:32;;;;;;;9.27;5.60;;;;;;;;;;5057321;28;20045;-78
2021/10/21 02:57:59;;;;;;;11.50;5.50;;;;;;;;;;5057432;28;20052;-77
2021/10/21 03:00:26;;;;;;;9.35;5.30;;;;;;;;;;5059245;28;20041;-78
2021/10/21 03:02:54;;;;;;;9.15;5.32;;;;;;;;;;5061570;28;20099;-77
2021/10/21 03:05:24;;;;;;;9.73;5.50;;;;;;;;;;5060782;28;20052;-77
2021/10/21 03:07:51;;;;;;;9.25;5.63;;;;;;;;;;5062435;28;20411;-77
2021/10/21 03:10:18;;;;;;;8.88;5.22;;;;;;;;;;5062156;28;20053;-77
2021/10/21 03:12:45;;;;;;;12.18;6.57;;;;;;;;;;5059591;28;20064;-78
2021/10/21 03:15:12;;;;;;;13.48;6.85;;;;;;;;;;5059661;28;20105;-77
2021/10/21 03:17:41;;;;;;;11.57;5.75;;;;;;;;;;5061041;28;20486;-78
2021/10/21 03:20:11;;;;;;;8.95;5.43;;;;;;;;;;5060827;28;20461;-78
2021/10/21 03:22:39;;;;;;;11.10;6.05;;;;;;;;;;5061574;28;20080;-77
2021/10/21 03:25:07;;;;;;;10.88;5.60;;;;;;;;;;5060068;28;20579;-78
2021/10/21 03:27:34;;;;;;;10.35;5.38;;;;;;;;;;5062252;28;20055;-77
2021/10/21 03:30:01;;;;;;;8.02;4.88;;;;;;;;;;5061770;28;20503;-77
2021/10/21 03:32:28;;;;;;;9.77;6.30;;;;;;;;;;5060134;28;20045;-76
2021/10/21 03:34:55;;;;;;;12.63;6.03;;;;;;;;;;5059701;28;20468;-76
2021/10/21 03:37:22;;;;;;;12.02;6.00;;;;;;;;;;5059947;28;20109;-78
2021/10/21 03:39:50;;;;;;;9.75;5.80;;;;;;;;;;5059268;28;20053;-77
2021/10/21 03:42:17;;;;;;;9.80;5.30;;;;;;;;;;5060045;28;20140;-78
2021/10/21 03:44:44;;;;;;;9.65;5.60;;;;;;;;;;5060302;28;20091;-78
2021/10/21 03:47:11;;;;;;;12.20;6.45;;;;;;;;;;5063340;28;20045;-78
2021/10/21 03:49:38;;;;;;;9.13;5.32;;;;;;;;;;5062816;28;20053;-78
2021/10/21 03:52:06;;;;;;;9.52;5.88;;;;;;;;;;5061949;28;20045;-78
2021/10/21 03:54:33;;;;;;;10.45;5.65;;;;;;;;;;5060470;28;20053;-77
2021/10/21 03:57:01;;;;;;;9.25;6.05;;;;;;;;;;5060734;28;20102;-78
2021/10/21 03:59:28;;;;;;;10.40;5.72;;;;;;;;;;5063794;28;20075;-79
2021/10/21 04:01:57;;;;;;;9.90;5.53;;;;;;;;;;5063076;28;20126;-78
2021/10/21 04:04:24;;;;;;;11.50;6.43;;;;;;;;;;5061184;28;20530;-78
2021/10/21 04:06:52;;;;;;;10.65;6.13;;;;;;;;;;5061535;28;20526;-80
2021/10/21 04:09:21;;;;;;;10.00;6.00;;;;;;;;;;5058154;28;20056;-76
2021/10/21 04:11:48;;;;;;;10.68;6.15;;;;;;;;;;5059134;28;20470;-78
2021/10/21 04:14:16;;;;;;;9.50;6.00;;;;;;;;;;5060008;28;20117;-77
2021/10/21 04:16:43;;;;;;;11.90;6.30;;;;;;;;;;5065121;28;20049;-76
2021/10/21 04:19:10;;;;;;;10.25;5.85;;;;;;;;;;5061519;28;20060;-78
2021/10/21 04:21:36;;;;;;;11.25;6.55;;;;;;;;;;5060255;28;20091;-78
2021/10/21 04:24:04;;;;;;;9.35;5.97;;;;;;;;;;5060209;28;20053;-78
2021/10/21 04:26:30;;;;;;;13.57;7.88;;;;;;;;;;5058903;28;20049;-78
2021/10/21 04:28:57;;;;;;;16.00;8.90;;;;;;;;;;5059128;28;20041;-77
2021/10/21 04:31:25;;;;;;;10.98;6.38;;;;;;;;;;5058722;28;20052;-77
2021/10/21 04:33:52;;;;;;;11.30;6.07;;;;;;;;;;5057854;28;20045;-77
2021/10/21 04:36:19;;;;;;;12.73;6.65;;;;;;;;;;5063438;28;20053;-78
2021/10/21 04:38:46;;;;;;;9.82;6.07;;;;;;;;;;5063276;28;20049;-79
2021/10/21 04:41:12;;;;;;;11.10;6.40;;;;;;;;;;5061484;28;20045;-79
2021/10/21 04:43:39;;;;;;;13.43;6.15;;;;;;;;;;5058864;28;20052;-77
2021/10/21 04:46:06;;;;;;;10.10;6.13;;;;;;;;;;5060035;28;20057;-80
2021/10/21 04:48:34;;;;;;;10.57;6.78;;;;;;;;;;5057713;28;20045;-77
2021/10/21 04:51:01;;;;;;;10.55;6.10;;;;;;;;;;5056554;28;20059;-77
2021/10/21 04:53:28;;;;;;;14.57;6.93;;;;;;;;;;5058949;28;20045;-77
2021/10/21 04:55:55;;;;;;;10.75;6.47;;;;;;;;;;5056803;28;20102;-78
2021/10/21 04:58:21;;;;;;;10.15;6.45;;;;;;;;;;5060802;28;20041;-78
2021/10/21 05:00:48;;;;;;;11.23;6.35;;;;;;;;;;5058245;28;20053;-79
2021/10/21 05:03:15;;;;;;;11.98;6.50;;;;;;;;;;5057703;28;20110;-78
2021/10/21 05:05:43;;;;;;;14.10;7.00;;;;;;;;;;5059238;28;20118;-79
2021/10/21 05:08:10;;;;;;;13.57;7.90;;;;;;;;;;5060719;28;20098;-78
2021/10/21 05:10:37;;;;;;;13.88;7.47;;;;;;;;;;5060258;28;20048;-78
2021/10/21 05:13:04;;;;;;;13.93;7.53;;;;;;;;;;5059297;28;20400;-78
2021/10/21 05:15:31;;;;;;;14.18;8.15;;;;;;;;;;5058658;28;20053;-78
2021/10/21 05:17:58;;;;;;;14.60;7.70;;;;;;;;;;5059278;28;20178;-78
2021/10/21 05:20:25;;;;;;;15.30;8.57;;;;;;;;;;5060551;28;20045;-78
2021/10/21 05:22:53;;;;;;;15.38;8.77;;;;;;;;;;5061691;28;20160;-77
2021/10/21 05:25:20;;;;;;;16.55;8.70;;;;;;;;;;5059553;28;20106;-78
2021/10/21 05:27:47;;;;;;;19.65;8.50;;;;;;;;;;5059452;28;20454;-78
2021/10/21 05:30:14;;;;;;;17.30;8.25;;;;;;;;;;5060433;28;20179;-78
2021/10/21 05:32:40;;;;;;;13.20;7.30;;;;;;;;;;5063224;28;20053;-78
2021/10/21 05:35:08;;;;;;;10.75;6.70;;;;;;;;;;5063569;28;20052;-77
2021/10/21 05:37:36;;;;;;;11.35;5.82;;;;;;;;;;5065764;28;20110;-77
2021/10/21 05:40:05;;;;;;;9.85;4.97;;;;;;;;;;5065309;28;20044;-77
2021/10/21 05:42:32;;;;;;;8.75;4.93;;;;;;;;;;5063924;28;20568;-77
2021/10/21 05:44:59;;;;;;;9.05;5.10;;;;;;;;;;5063689;28;20048;-77
2021/10/21 05:47:26;;;;;;;9.77;5.15;;;;;;;;;;5063418;28;20049;-77
2021/10/21 05:49:54;;;;;;;8.30;3.63;;;;;;;;;;5064167;28;20041;-76
2021/10/21 05:52:24;;;;;;;8.45;3.42;;;;;;;;;;5061869;28;20048;-77
2021/10/21 05:54:51;;;;;;;;;;;;;;;;;;5060805;28;20044;-77
2021/10/21 05:57:19;;;;;;;5.53;2.08;;;;;;;;;;5060477;28;19966;-76
2021/10/21 05:59:46;;;;;;;8.75;2.75;;;;;;;;;;5060714;28;20071;-76
2021/10/21 06:02:12;;;;;;;8.30;2.15;;;;;;;;;;5059901;28;20045;-77
2021/10/21 06:04:39;;;;;;;8.73;3.08;;;;;;;;;;5062446;28;20110;-77
2021/10/21 06:07:06;;;;;;;4.63;1.98;;;;;;;;;;5063129;28;20068;-77
2021/10/21 06:09:33;;;;;;;6.45;2.55;;;;;;;;;;5063410;28;20075;-77
2021/10/21 06:12:00;;;;;;;8.75;3.55;;;;;;;;;;5062383;28;20049;-77
2021/10/21 06:14:31;;;;;;;5.50;2.30;;;;;;;;;;5062145;28;20052;-75
2021/10/21 06:16:57;;;;;;;5.28;2.35;;;;;;;;;;5063252;28;20076;-77
2021/10/21 06:19:24;;;;;;;5.45;2.08;;;;;;;;;;5062311;28;20086;-77
2021/10/21 06:21:57;;;;;;;5.95;2.30;;;;;;;;;;5060421;28;20053;-76
2021/10/21 06:24:24;;;;;;;5.43;1.67;;;;;;;;;;5062348;28;20041;-77
2021/10/21 06:26:51;;;;;;;4.93;1.50;;;;;;;;;;5059502;28;20109;-77
2021/10/21 06:29:18;;;;;;;5.68;1.55;;;;;;;;;;5058639;28;20163;-78
2021/10/21 06:31:48;;;;;;;4.70;1.83;;;;;;;;;;5061411;28;20050;-77
2021/10/21 06:34:15;;;;;;;8.85;1.65;;;;;;;;;;5061943;28;20569;-78
2021/10/21 06:36:42;;;;;;;4.03;0.77;;;;;;;;;;5065905;28;20068;-78
2021/10/21 06:39:10;;;;;;;2.38;0.95;;;;;;;;;;5065356;28;20106;-78
2021/10/21 06:41:37;;;;;;;5.10;0.90;;;;;;;;;;5064308;28;20121;-77
2021/10/21 06:44:04;;;;;;;5.13;0.95;;;;;;;;;;5061598;28;20041;-77
2021/10/21 06:46:31;;;;;;;5.22;0.63;;;;;;;;;;5059545;28;20063;-77
2021/10/21 06:48:59;;;;;;;3.03;0.70;;;;;;;;;;5062852;28;20045;-77
2021/10/21 06:51:26;;;;;;;6.32;0.93;;;;;;;;;;5062880;28;20041;-78
2021/10/21 06:53:53;;;;;;;5.55;1.10;;;;;;;;;;5063831;28;20071;-78
2021/10/21 06:56:20;;;;;;;4.35;1.15;;;;;;;;;;5064096;28;20099;-77
2021/10/21 06:58:47;;;;;;;5.60;0.80;;;;;;;;;;5064004;28;20045;-78
2021/10/21 07:01:14;;;;;;;4.75;0.82;;;;;;;;;;5060750;28;20049;-78
2021/10/21 07:03:41;;;;;;;7.53;1.77;;;;;;;;;;5059604;28;20049;-76
2021/10/21 07:06:09;;;;;;;4.47;1.05;;;;;;;;;;5058570;28;20102;-77
2021/10/21 07:08:36;;;;;;;2.85;0.68;;;;;;;;;;5059336;28;20060;-78
2021/10/21 07:11:03;;;;;;;4.38;0.70;;;;;;;;;;5058947;28;20056;-77
2021/10/21 07:13:30;;;;;;;2.40;0.80;;;;;;;;;;5059765;28;20239;-77
2021/10/21 07:15:57;;;;;;;3.83;0.98;;;;;;;;;;5059060;28;20171;-77
2021/10/21 07:18:24;;;;;;;3.72;0.70;;;;;;;;;;5059376;28;20102;-77
2021/10/21 07:20:51;;;;;;;7.45;1.00;;;;;;;;;;5059419;28;20056;-77
2021/10/21 07:23:19;;;;;;;4.55;0.80;;;;;;;;;;5059492;28;20119;-77
2021/10/21 07:25:45;;;;;;;5.93;1.08;;;;;;;;;;5060985;28;20044;-77
2021/10/21 07:28:12;;;;;;;5.07;1.63;;;;;;;;;;5059968;28;20048;-77
2021/10/21 07:30:39;;;;;;;3.65;1.40;;;;;;;;;;5059769;28;20048;-77
2021/10/21 07:33:06;;;;;;;4.43;1.05;;;;;;;;;;5059590;28;20041;-76
2021/10/21 07:35:32;;;;;;;6.63;1.00;;;;;;;;;;5060096;28;20385;-77
2021/10/21 07:38:01;;;;;;;3.88;1.10;;;;;;;;;;5059310;28;20091;-77
2021/10/21 07:40:29;;;;;;;5.82;1.13;;;;;;;;;;5061008;28;20072;-77
2021/10/21 07:42:56;;;;;;;4.80;1.05;;;;;;;;;;5064604;28;20049;-77
2021/10/21 07:45:22;;;;;;;5.15;1.30;;;;;;;;;;5064921;28;20048;-77
2021/10/21 07:47:49;;;;;;;4.18;1.25;;;;;;;;;;5066151;28;20071;-78
2021/10/21 07:50:18;;;;;;;3.53;1.33;;;;;;;;;;5063649;28;20115;-78
2021/10/21 07:52:46;;;;;;;9.63;1.38;;;;;;;;;;5061713;28;20049;-78
2021/10/21 07:55:14;;;;;;;6.15;0.85;;;;;;;;;;5062652;28;20411;-78
2021/10/21 07:57:42;;;;;;;6.90;1.05;;;;;;;;;;5062083;28;20381;-78
2021/10/21 08:00:11;;;;;;;9.57;2.30;;;;;;;;;;5061386;28;20109;-78
2021/10/21 08:02:38;;;;;;;7.80;2.47;;;;;;;;;;5062454;28;20045;-78
2021/10/21 08:05:06;;;;;;;8.30;1.75;;;;;;;;;;5061555;28;20048;-78
2021/10/21 08:07:38;;;;;;;13.75;1.75;;;;;;;;;;5062751;28;20194;-78
2021/10/21 08:10:06;;;;;;;8.55;1.25;;;;;;;;;;5060218;28;20044;-78
2021/10/21 08:12:33;;;;;;;10.40;1.60;;;;;;;;;;5057328;28;20150;-78
2021/10/21 08:15:02;;;;;;;11.20;1.80;;;;;;;;;;5057879;28;20094;-78
2021/10/21 08:17:29;;;;;;;8.57;2.15;;;;;;;;;;5059359;28;20045;-77
2021/10/21 08:19:56;;;;;;;6.00;1.20;;;;;;;;;;5059128;28;20041;-78
2021/10/21 08:22:23;;;;;;;11.02;2.28;;;;;;;;;;5059287;28;20201;-78
2021/10/21 08:24:50;;;;;;;11.13;2.17;;;;;;;;;;5058398;28;20466;-77
2021/10/21 08:27:17;;;;;;;5.82;1.30;;;;;;;;;;5059289;28;20049;-78
2021/10/21 08:29:44;;;;;;;9.32;1.25;;;;;;;;;;5057673;28;20415;-78
2021/10/21 08:32:12;;;;;;;5.22;0.93;;;;;;;;;;5058169;28;20470;-77
2021/10/21 08:34:39;;;;;;;8.80;1.52;;;;;;;;;;5057790;28;20071;-77
2021/10/21 08:37:07;;;;;;;7.88;1.90;;;;;;;;;;5057381;28;20412;-78
2021/10/21 08:39:35;;;;;;;5.13;1.73;;;;;;;;;;5056940;28;20056;-77
2021/10/21 08:42:03;;;;;;;7.57;1.73;;;;;;;;;;5057606;28;20052;-78
2021/10/21 08:44:31;;;;;;;4.97;1.45;;;;;;;;;;5055567;28;20053;-79
2021/10/21 08:46:59;;;;;;;5.35;1.23;;;;;;;;;;5055470;28;20553;-77
2021/10/21 08:49:27;;;;;;;9.07;1.58;;;;;;;;;;5054815;28;20048;-79
2021/10/21 08:51:55;;;;;;;6.90;1.10;;;;;;;;;;5056497;28;20118;-78
2021/10/21 08:54:22;;;;;;;8.02;1.52;;;;;;;;;;5056284;28;20413;-77
2021/10/21 08:56:49;;;;;;;7.05;1.05;;;;;;;;;;5056141;28;20048;-77
2021/10/21 08:59:16;;;;;;;9.10;1.55;;;;;;;;;;5056328;28;20109;-78
2021/10/21 09:01:45;;;;;;;7.40;1.10;;;;;;;;;;5057778;28;20121;-77
2021/10/21 09:09:54;;;;;;;11.23;1.83;;;;;;;;;;5040536;28;20055;-78
2021/10/21 09:12:21;;;;;;;12.85;1.50;;;;;;;;;;5057881;28;20087;-78
2021/10/21 09:14:49;;;;;;;8.63;1.67;;;;;;;;;;5059089;28;20549;-78
2021/10/21 09:17:20;;;;;;;6.75;1.02;;;;;;;;;;5057331;28;20041;-78
2021/10/21 09:19:47;;;;;;;10.52;1.33;;;;;;;;;;5057010;28;20143;-78
2021/10/21 09:22:24;;;;;;;15.18;2.00;;;;;;;;;;5055874;28;20052;-78
2021/10/21 09:24:53;;;;;;;11.05;1.60;;;;;;;;;;5055788;28;20049;-78
2021/10/21 09:27:24;;;;;;;11.10;2.10;;;;;;;;;;5058076;28;20071;-78
2021/10/21 09:29:53;;;;;;;7.05;1.10;;;;;;;;;;5058708;28;20079;-78
2021/10/21 09:32:21;;;;;;;7.70;1.23;;;;;;;;;;5059415;28;20045;-78
2021/10/21 09:34:51;;;;;;;11.23;2.97;;;;;;;;;;5059402;28;20055;-78
2021/10/21 09:37:21;;;;;;;8.75;2.22;;;;;;;;;;5060190;28;20135;-78
2021/10/21 09:39:50;;;;;;;6.70;1.83;;;;;;;;;;5058676;28;20076;-78
2021/10/21 09:42:17;;;;;;;7.15;1.65;;;;;;;;;;5058641;28;20511;-78
2021/10/21 09:44:45;;;;;;;9.60;1.00;;;;;;;;;;5057137;28;20049;-77
2021/10/21 09:47:16;;;;;;;6.13;1.08;;;;;;;;;;5057930;28;20076;-78
2021/10/21 09:49:44;;;;;;;10.70;1.48;;;;;;;;;;5057497;28;20045;-78
2021/10/21 09:52:15;;;;;;;5.13;1.27;;;;;;;;;;5057710;28;20102;-78
2021/10/21 09:54:44;;;;;;;8.05;1.33;;;;;;;;;;5057561;28;20056;-78
2021/10/21 09:57:13;;;;;;;13.45;1.55;;;;;;;;;;5058386;28;20422;-78
2021/10/21 09:59:41;;;;;;;8.25;1.83;;;;;;;;;;5057779;28;20051;-78
2021/10/21 10:02:14;;;;;;;11.00;1.27;;;;;;;;;;5054256;28;20051;-77
2021/10/21 10:04:46;;;;;;;5.07;1.20;;;;;;;;;;5053417;28;20049;-77
2021/10/21 10:07:13;;;;;;;6.55;2.63;;;;;;;;;;5056024;28;20053;-78
2021/10/21 10:09:40;;;;;;;9.68;1.05;;;;;;;;;;5058211;28;20045;-77
2021/10/21 10:12:09;;;;;;;3.63;0.93;;;;;;;;;;5060586;28;20049;-78
2021/10/21 10:14:40;;;;;;;10.75;2.17;;;;;;;;;;5059921;28;20075;-79
2021/10/21 10:17:07;;;;;;;7.35;1.20;;;;;;;;;;5060053;28;20062;-78
2021/10/21 10:19:35;;;;;;;11.43;1.33;;;;;;;;;;5061418;28;20055;-79
2021/10/21 10:22:06;;;;;;;8.32;1.25;;;;;;;;;;5062222;28;20078;-78
2021/10/21 10:24:35;;;;;;;7.15;1.10;;;;;;;;;;5068764;28;20053;-79
2021/10/21 10:27:03;;;;;;;4.78;1.20;;;;;;;;;;5062714;28;20053;-78
2021/10/21 10:29:46;;;;;;;10.23;1.45;;;;;;;;;;5057448;28;20147;-78
2021/10/21 10:32:40;;;;;;;9.32;1.45;;;;;;;;;;5057447;28;20080;-79
2021/10/21 10:35:09;;;;;;;6.72;1.02;;;;;;;;;;5059178;28;20075;-78
2021/10/21 10:37:47;;;;;;;8.32;1.05;;;;;;;;;;5059088;28;20495;-79
2021/10/21 10:40:15;;;;;;;4.97;1.25;;;;;;;;;;5058667;28;20053;-78
2021/10/21 10:43:00;;;;;;;6.05;0.93;;;;;;;;;;5059104;28;20041;-78
2021/10/21 10:45:43;;;;;;;8.35;1.30;;;;;;;;;;5057961;28;20045;-79
2021/10/21 10:48:11;;;;;;;10.30;1.25;;;;;;;;;;5054653;28;20424;-78
2021/10/21 10:50:53;;;;;;;5.90;1.15;;;;;;;;;;5055350;28;20549;-78
2021/10/21 10:53:51;;;;;;;9.60;1.55;;;;;;;;;;5055417;28;20107;-78
2021/10/21 10:56:43;;;;;;;10.23;2.40;;;;;;;;;;5054597;28;20040;-77
2021/10/21 10:59:21;;;;;;;4.75;1.05;;;;;;;;;;5057802;28;20049;-79
2021/10/21 11:01:51;;;;;;;6.88;1.10;;;;;;;;;;5056284;28;20086;-78
2021/10/21 11:04:55;;;;;;;9.67;1.20;;;;;;;;;;5057475;28;20257;-78
2021/10/21 11:07:24;;;;;;;7.13;1.05;;;;;;;;;;5057369;28;20044;-78
2021/10/21 11:09:51;;;;;;;8.48;1.10;;;;;;;;;;5056973;28;20045;-78
2021/10/21 11:12:22;;;;;;;6.20;1.42;;;;;;;;;;5058099;28;20480;-78
2021/10/21 11:14:55;;;;;;;7.97;1.60;;;;;;;;;;5057058;28;20045;-78
2021/10/21 11:17:43;;;;;;;8.02;1.15;;;;;;;;;;5056791;28;20048;-78
2021/10/21 11:20:38;;;;;;;5.75;1.02;;;;;;;;;;5056848;28;20048;-77
2021/10/21 11:23:06;;;;;;;6.63;1.13;;;;;;;;;;5056314;28;20060;-79
2021/10/21 11:25:35;;;;;;;6.65;1.08;;;;;;;;;;5057548;28;20048;-77
2021/10/21 11:28:02;;;;;;;8.60;1.20;;;;;;;;;;5059144;28;20056;-77
2021/10/21 11:30:31;;;;;;;4.90;0.93;;;;;;;;;;5060065;28;20057;-78
2021/10/21 11:33:01;;;;;;;4.20;0.80;;;;;;;;;;5061459;28;20135;-76
2021/10/21 11:35:30;;;;;;;2.67;0.75;;;;;;;;;;5064547;28;20053;-78
2021/10/21 11:37:58;;;;;;;5.35;1.20;;;;;;;;;;5060546;28;20041;-77
2021/10/21 11:40:28;;;;;;;5.82;0.95;;;;;;;;;;5059080;28;20171;-78
2021/10/21 11:42:57;;;;;;;;;;;;;;;;;;5059548;28;20049;-78
2021/10/21 11:45:28;;;;;;;3.45;0.70;;;;;;;;;;5058475;28;19928;-79
2021/10/21 11:47:57;;;;;;;7.45;1.95;;;;;;;;;;5058627;28;20048;-77
2021/10/21 11:50:38;;;;;;;3.88;1.25;;;;;;;;;;5058271;28;20444;-77
2021/10/21 11:53:05;;;;;;;4.43;0.95;;;;;;;;;;5056456;28;20462;-77
2021/10/21 11:55:33;;;;;;;4.63;1.15;;;;;;;;;;5055263;28;20075;-76
2021/10/21 11:58:09;;;;;;;3.47;0.80;;;;;;;;;;5057016;28;20547;-77
2021/10/21 12:00:37;;;;;;;7.18;0.80;;;;;;;;;;5056457;28;20056;-77
2021/10/21 12:03:04;;;;;;;5.00;0.90;;;;;;;;;;5057448;28;20055;-79
2021/10/21 12:05:33;;;;;;;4.88;0.80;;;;;;;;;;5060101;28;20049;-77
2021/10/21 12:08:02;;;;;;;7.05;1.23;;;;;;;;;;5059915;28;20051;-78
2021/10/21 12:10:31;;;;;;;12.90;1.40;;;;;;;;;;5057826;28;20056;-77
2021/10/21 12:12:59;;;;;;;4.45;0.90;;;;;;;;;;5056889;28;20075;-77
2021/10/21 12:15:27;;;;;;;7.55;1.00;;;;;;;;;;5059083;28;20084;-77
2021/10/21 12:17:55;;;;;;;5.22;0.90;;;;;;;;;;5057980;28;20434;-77
2021/10/21 12:20:30;;;;;;;3.75;0.88;;;;;;;;;;5059148;28;20063;-78
2021/10/21 12:22:57;;;;;;;3.78;0.95;;;;;;;;;;5058922;28;20055;-78
2021/10/21 12:25:35;;;;;;;5.20;1.00;;;;;;;;;;5055196;28;20369;-77
2021/10/21 12:28:02;;;;;;;5.10;0.90;;;;;;;;;;5058192;28;20111;-78
2021/10/21 12:30:34;;;;;;;3.97;0.80;;;;;;;;;;5057299;28;20135;-77
2021/10/21 12:33:12;;;;;;;5.65;1.00;;;;;;;;;;5058066;28;20488;-78
2021/10/21 12:36:02;;;;;;;6.20;1.20;;;;;;;;;;5059402;28;20045;-78
2021/10/21 12:38:30;;;;;;;7.30;1.20;;;;;;;;;;5058811;28;20439;-77
2021/10/21 12:41:05;;;;;;;2.40;0.70;;;;;;;;;;5057424;28;20566;-78
2021/10/21 12:43:33;;;;;;;7.18;1.33;;;;;;;;;;5057149;28;20419;-77
2021/10/21 12:46:04;;;;;;;5.85;0.80;;;;;;;;;;5059026;28;20049;-78
2021/10/21 12:48:34;;;;;;;2.97;0.77;;;;;;;;;;5058856;28;20056;-78
2021/10/21 12:51:10;;;;;;;5.32;1.17;;;;;;;;;;5059120;28;20067;-78
2021/10/21 12:53:37;;;;;;;4.45;0.98;;;;;;;;;;5057049;28;20063;-77
2021/10/21 12:56:22;;;;;;;4.00;0.70;;;;;;;;;;5058419;28;20049;-78
2021/10/21 12:58:49;;;;;;;5.07;1.10;;;;;;;;;;5058992;28;20404;-78
2021/10/21 13:01:15;;;;;;;6.45;1.30;;;;;;;;;;5057740;28;20044;-78
2021/10/21 13:03:45;;;;;;;6.60;0.95;;;;;;;;;;5057895;28;20049;-78
2021/10/21 13:06:12;;;;;;;5.32;1.20;;;;;;;;;;5058481;28;20041;-78
2021/10/21 13:08:42;;;;;;;2.58;0.85;;;;;;;;;;5057775;28;20061;-78
2021/10/21 13:11:09;;;;;;;3.13;0.82;;;;;;;;;;5057087;28;20052;-78
2021/10/21 13:13:39;;;;;;;6.43;1.08;;;;;;;;;;5079482;22;20045;-62
2021/10/21 13:16:08;;;;;;;4.05;0.82;;;;;;;;;;5053120;28;20148;-62
2021/10/21 13:18:36;;;;;;;3.53;1.15;;;;;;;;;;5052501;28;20055;-62
2021/10/21 13:21:04;;;;;;;1.92;0.57;;;;;;;;;;5052874;28;20045;-62
2021/10/21 13:23:33;;;;;;;3.55;1.23;;;;;;;;;;5052454;28;20082;-63
2021/10/21 13:26:01;;;;;;;3.95;0.80;;;;;;;;;;5052975;28;20057;-64
2021/10/21 13:28:28;;;;;;;5.07;1.00;;;;;;;;;;5052213;28;20390;-61
2021/10/21 13:30:56;;;;;;;5.07;0.93;;;;;;;;;;5052561;28;20089;-63
2021/10/21 13:33:23;;;;;;;2.85;0.93;;;;;;;;;;5052729;28;20053;-63
2021/10/21 13:35:50;;;;;;;2.38;0.80;;;;;;;;;;5052600;28;20103;-63
2021/10/21 13:38:17;;;;;;;4.03;0.95;;;;;;;;;;5052372;28;20049;-63
2021/10/21 13:40:45;;;;;;;4.50;0.90;;;;;;;;;;5052496;28;20052;-63
2021/10/21 13:43:12;;;;;;;3.58;0.73;;;;;;;;;;5052340;28;20044;-60
2021/10/21 13:45:40;;;;;;;3.65;0.57;;;;;;;;;;5052496;28;20106;-62
2021/10/21 13:48:10;;;;;;;4.47;1.30;;;;;;;;;;5052430;28;20085;-63
2021/10/21 13:50:37;;;;;;;2.33;0.60;;;;;;;;;;5052603;28;20140;-63
2021/10/21 13:53:06;;;;;;;3.55;0.75;;;;;;;;;;5052667;28;20076;-62
2021/10/21 13:55:34;;;;;;;4.63;0.88;;;;;;;;;;5052395;28;20057;-61
2021/10/21 13:58:01;;;;;;;4.15;0.65;;;;;;;;;;5051946;28;20501;-61
2021/10/21 14:00:29;;;;;;;2.97;0.65;;;;;;;;;;5052271;28;20060;-62
2021/10/21 14:02:56;;;;;;;2.28;0.52;;;;;;;;;;5052296;28;20044;-62
2021/10/21 14:05:24;;;;;;;10.55;0.93;;;;;;;;;;5052356;28;20421;-65
2021/10/21 14:07:51;;;;;;;6.22;0.80;;;;;;;;;;5052312;28;20057;-62
2021/10/21 14:10:19;;;;;;;3.13;0.98;;;;;;;;;;5052275;28;20045;-62
2021/10/21 14:12:46;;;;;;;4.30;1.00;;;;;;;;;;5051700;28;20141;-62
2021/10/21 14:15:13;;;;;;;2.40;0.80;;;;;;;;;;5052129;28;20057;-61
2021/10/21 14:17:40;;;;;;;5.00;1.52;;;;;;;;;;5052186;28;20057;-62
2021/10/21 14:20:08;;;;;;;4.80;1.55;;;;;;;;;;5052166;28;20048;-61
2021/10/21 14:22:37;;;;;;;3.78;1.00;;;;;;;;;;5052164;28;20052;-63
2021/10/21 14:25:07;;;;;;;3.97;1.98;;;;;;;;;;5051977;28;20135;-63
2021/10/21 14:27:34;;;;;;;5.17;1.23;;;;;;;;;;5052109;28;20144;-63
2021/10/21 14:30:01;;;;;;;3.60;0.90;;;;;;;;;;5051736;28;20316;-62
2021/10/21 14:32:28;;;;;;;4.00;1.25;;;;;;;;;;5051739;28;20045;-62
2021/10/21 14:34:56;;;;;;;5.32;1.88;;;;;;;;;;5051721;28;20068;-63
2021/10/21 14:37:26;;;;;;;4.18;1.00;;;;;;;;;;5052016;28;20437;-60
2021/10/21 14:39:55;;;;;;;4.65;1.15;;;;;;;;;;5051823;28;20056;-61
2021/10/21 14:42:22;;;;;;;3.97;1.00;;;;;;;;;;5051847;28;20346;-63
2021/10/21 14:44:51;;;;;;;6.03;1.25;;;;;;;;;;5051803;28;20056;-63
2021/10/21 14:47:18;;;;;;;6.80;1.27;;;;;;;;;;5051746;28;20049;-63
2021/10/21 14:49:45;;;;;;;5.47;1.00;;;;;;;;;;5051565;28;20070;-62
2021/10/21 14:52:12;;;;;;;3.95;0.98;;;;;;;;;;5051499;28;20110;-63
2021/10/21 14:54:39;;;;;;;6.28;1.58;;;;;;;;;;5051548;28;20135;-64